Time;durP1;ratioP1;P1;durP2;ratioP2;P2;SDS_P1;SDS_P2;PMS_P1;PMS_P2;Temp;Humidity;BMP_temperature;BMP_pressure;BME280_temperature;BME280_humidity;BME280_pressure;Samples;Min_cycle;Max_cycle;Signal;HPM_P1;HPM_P2
2022/07/01 00:01:37;;;;;;;16.50;11.88;;;;;;;;;;5035564;28;20049;-76
2022/07/01 00:04:03;;;;;;;16.13;11.18;;;;;;;;;;5035660;28;20109;-73
2022/07/01 00:06:30;;;;;;;16.02;11.25;;;;;;;;;;5035095;28;20041;-75
2022/07/01 00:08:56;;;;;;;15.27;12.57;;;;;;;;;;5035402;28;20056;-75
2022/07/01 00:11:22;;;;;;;15.13;11.18;;;;;;;;;;5035277;28;20372;-75
2022/07/01 00:13:48;;;;;;;13.60;11.60;;;;;;;;;;5035294;28;20021;-76
2022/07/01 00:16:14;;;;;;;13.80;10.50;;;;;;;;;;5035119;28;20442;-77
2022/07/01 00:18:40;;;;;;;16.92;10.98;;;;;;;;;;5035163;28;20357;-76
2022/07/01 00:21:06;;;;;;;13.40;9.90;;;;;;;;;;5017169;28;20117;-75
2022/07/01 00:23:33;;;;;;;11.23;9.77;;;;;;;;;;5035112;28;20033;-77
2022/07/01 00:25:59;;;;;;;12.25;9.15;;;;;;;;;;5035039;28;20014;-77
2022/07/01 00:28:25;;;;;;;13.13;9.95;;;;;;;;;;5034855;28;20029;-77
2022/07/01 00:30:51;;;;;;;13.35;9.65;;;;;;;;;;5034862;28;20068;-78
2022/07/01 00:33:18;;;;;;;11.30;8.68;;;;;;;;;;5034801;28;20091;-77
2022/07/01 00:35:44;;;;;;;10.20;9.02;;;;;;;;;;5034618;28;20030;-77
2022/07/01 00:38:10;;;;;;;14.82;10.52;;;;;;;;;;5034929;28;20409;-78
2022/07/01 00:40:36;;;;;;;11.43;9.63;;;;;;;;;;5034835;28;20484;-78
2022/07/01 00:43:03;;;;;;;13.48;10.10;;;;;;;;;;5034965;28;20025;-78
2022/07/01 00:45:29;;;;;;;12.25;9.20;;;;;;;;;;5034789;28;20041;-79
2022/07/01 00:47:55;;;;;;;13.50;9.77;;;;;;;;;;5034587;28;20361;-79
2022/07/01 00:50:21;;;;;;;12.20;9.20;;;;;;;;;;5034325;28;20587;-72
2022/07/01 00:52:47;;;;;;;11.57;9.68;;;;;;;;;;5034646;28;20440;-79
2022/07/01 00:55:14;;;;;;;11.05;9.52;;;;;;;;;;5034412;28;20035;-78
2022/07/01 00:57:41;;;;;;;10.93;9.52;;;;;;;;;;5034348;28;20100;-79
2022/07/01 01:00:09;;;;;;;12.95;9.55;;;;;;;;;;5034335;28;20022;-72
2022/07/01 01:02:36;;;;;;;14.13;9.02;;;;;;;;;;5034550;28;20033;-78
2022/07/01 01:05:05;;;;;;;11.18;8.10;;;;;;;;;;5034099;28;20054;-79
2022/07/01 01:07:32;;;;;;;10.77;8.35;;;;;;;;;;5034191;28;20075;-80
2022/07/01 01:10:02;;;;;;;9.95;8.38;;;;;;;;;;5033404;28;20084;-78
2022/07/01 01:12:28;;;;;;;12.55;8.27;;;;;;;;;;5034142;28;20564;-78
2022/07/01 01:14:54;;;;;;;11.60;8.10;;;;;;;;;;5034012;28;20472;-78
2022/07/01 01:17:23;;;;;;;11.60;9.27;;;;;;;;;;5034101;28;20028;-77
2022/07/01 01:19:50;;;;;;;10.40;9.05;;;;;;;;;;5033942;28;20025;-77
2022/07/01 01:22:16;;;;;;;11.45;8.27;;;;;;;;;;5033788;28;20061;-77
2022/07/01 01:24:44;;;;;;;11.20;8.50;;;;;;;;;;5033801;28;20036;-78
2022/07/01 01:27:10;;;;;;;11.95;8.57;;;;;;;;;;5034024;28;20025;-77
2022/07/01 01:29:36;;;;;;;16.30;8.68;;;;;;;;;;5033685;28;20068;-78
2022/07/01 01:32:03;;;;;;;9.05;8.10;;;;;;;;;;5033710;28;20453;-77
2022/07/01 01:34:29;;;;;;;9.68;8.60;;;;;;;;;;5033636;28;20036;-75
2022/07/01 01:36:55;;;;;;;12.30;8.45;;;;;;;;;;5033606;28;20030;-76
2022/07/01 01:39:22;;;;;;;11.50;8.77;;;;;;;;;;5033623;28;20025;-76
2022/07/01 01:41:48;;;;;;;11.43;8.00;;;;;;;;;;5033476;28;20018;-75
2022/07/01 01:44:14;;;;;;;9.25;8.27;;;;;;;;;;5033724;28;20021;-76
2022/07/01 01:46:40;;;;;;;13.57;8.30;;;;;;;;;;5033557;28;20033;-75
2022/07/01 01:49:07;;;;;;;9.23;8.15;;;;;;;;;;5033267;28;20473;-75
2022/07/01 01:51:33;;;;;;;9.23;8.30;;;;;;;;;;5033304;28;20480;-76
2022/07/01 01:53:59;;;;;;;10.90;7.97;;;;;;;;;;5033354;28;20380;-76
2022/07/01 01:56:26;;;;;;;10.15;8.13;;;;;;;;;;5033499;28;20416;-76
2022/07/01 01:58:52;;;;;;;10.80;8.35;;;;;;;;;;5033288;28;20026;-76
2022/07/01 02:01:19;;;;;;;13.10;8.10;;;;;;;;;;5033197;28;20484;-76
2022/07/01 02:03:46;;;;;;;10.60;8.75;;;;;;;;;;5033308;28;20040;-76
2022/07/01 02:06:13;;;;;;;12.40;8.57;;;;;;;;;;5032962;28;20056;-76
2022/07/01 02:08:40;;;;;;;11.43;8.02;;;;;;;;;;5033281;28;20429;-75
2022/07/01 02:11:06;;;;;;;11.90;8.90;;;;;;;;;;5033046;28;20037;-77
2022/07/01 02:13:32;;;;;;;13.85;8.98;;;;;;;;;;5033294;28;20022;-78
2022/07/01 02:15:58;;;;;;;8.60;7.20;;;;;;;;;;5033131;28;20025;-76
2022/07/01 02:18:24;;;;;;;8.68;7.68;;;;;;;;;;5033091;28;20399;-75
2022/07/01 02:20:51;;;;;;;10.10;7.70;;;;;;;;;;5032850;28;20025;-74
2022/07/01 02:23:17;;;;;;;10.43;7.88;;;;;;;;;;5032953;28;20025;-75
2022/07/01 02:25:43;;;;;;;10.30;8.10;;;;;;;;;;5033247;28;20025;-74
2022/07/01 02:28:09;;;;;;;12.35;8.35;;;;;;;;;;5033016;28;20070;-75
2022/07/01 02:30:36;;;;;;;9.75;7.70;;;;;;;;;;5032796;28;20041;-77
2022/07/01 02:33:09;;;;;;;9.20;8.15;;;;;;;;;;5032741;28;20028;-76
2022/07/01 02:35:39;;;;;;;8.80;7.40;;;;;;;;;;5032916;28;20034;-74
2022/07/01 02:38:06;;;;;;;11.05;8.18;;;640.20;2432.00;;;;;;5032880;28;20030;-72
2022/07/01 02:40:33;;;;;;;12.57;8.13;;;640.20;2432.00;;;;;;5032847;28;20029;-76
2022/07/01 02:42:59;;;;;;;10.50;7.63;;;640.30;2432.00;;;;;;5032806;28;20396;-76
2022/07/01 02:45:26;;;;;;;11.27;7.80;;;640.40;2432.00;;;;;;5033060;28;20390;-73
2022/07/01 02:47:51;;;;;;;11.48;7.50;;;640.30;2432.00;;;;;;5032966;28;20384;-72
2022/07/01 02:50:18;;;;;;;12.02;8.50;;;640.40;2432.00;;;;;;5032946;28;20037;-72
2022/07/01 02:52:45;;;;;;;10.85;8.05;;;640.50;2432.00;;;;;;5032668;28;20021;-74
2022/07/01 02:55:12;;;;;;;10.77;7.88;;;640.50;2432.00;;;;;;5032797;28;20392;-73
2022/07/01 02:57:39;;;;;;;11.73;8.23;;;640.40;2432.00;;;;;;5032852;28;20030;-72
2022/07/01 03:00:10;;;;;;;11.68;7.88;;;640.40;2432.00;;;;;;5032733;28;20491;-72
2022/07/01 03:02:36;;;;;;;10.77;8.35;;;640.30;2432.00;;;;;;5032934;28;20117;-71
2022/07/01 03:05:03;;;;;;;13.52;8.93;;;640.30;2432.00;;;;;;5032681;28;20115;-75
2022/07/01 03:07:29;;;;;;;10.95;8.45;;;640.20;2432.00;;;;;;5032469;28;20075;-73
2022/07/01 03:09:55;;;;;;;10.25;7.85;;;640.20;2432.00;;;;;;5032618;28;20116;-74
2022/07/01 03:12:34;;;;;;;11.15;8.50;;;640.20;2432.00;;;;;;5032613;28;20536;-75
2022/07/01 03:15:10;;;;;;;13.52;8.30;;;640.20;2432.00;;;;;;5032554;28;20025;-73
2022/07/01 03:17:38;;;;;;;11.55;8.48;;;640.20;2432.00;;;;;;5032493;28;20033;-75
2022/07/01 03:20:09;;;;;;;17.42;8.35;;;640.20;2432.00;;;;;;5032526;28;20353;-73
2022/07/01 03:22:35;;;;;;;9.90;7.80;;;640.20;2432.00;;;;;;5032483;28;20615;-75
2022/07/01 03:25:03;;;;;;;13.57;8.40;;;640.20;2432.00;;;;;;5032391;28;20124;-75
2022/07/01 03:27:29;;;;;;;12.75;7.95;;;640.20;2432.00;;;;;;5032330;28;20021;-70
2022/07/01 03:29:55;;;;;;;11.10;7.75;;;640.20;2432.00;;;;;;5032476;28;20041;-73
2022/07/01 03:32:21;;;;;;;9.25;7.82;;;640.20;2432.00;;;;;;5033292;28;20380;-75
2022/07/01 03:34:49;;;;;;;10.05;8.82;;;640.20;2432.00;;;;;;5035973;28;20563;-75
2022/07/01 03:37:16;;;;;;;11.82;8.35;;;640.20;2432.00;;;;;;5036057;28;20025;-76
2022/07/01 03:39:42;;;;;;;11.05;8.35;;;640.10;2432.00;;;;;;5035860;28;20385;-76
2022/07/01 03:42:09;;;;;;;12.43;8.57;;;;;;;;;;5035899;28;20036;-76
2022/07/01 03:44:35;;;;;;;11.38;8.00;;;;;;;;;;5035712;28;20033;-76
2022/07/01 03:47:02;;;;;;;9.43;8.32;;;;;;;;;;5035731;28;20067;-76
2022/07/01 03:49:28;;;;;;;11.57;7.75;;;;;;;;;;5035659;28;20030;-76
2022/07/01 03:51:54;;;;;;;13.88;7.78;;;;;;;;;;5035545;28;20115;-76
2022/07/01 03:54:29;;;;;;;11.25;8.43;;;;;;;;;;5035625;28;20360;-76
2022/07/01 03:56:56;;;;;;;8.82;7.93;;;;;;;;;;5035532;28;20032;-76
2022/07/01 03:59:22;;;;;;;11.30;8.68;;;;;;;;;;5035559;28;20103;-76
2022/07/01 04:01:48;;;;;;;12.65;8.45;;;;;;;;;;5035509;28;20387;-76
2022/07/01 04:04:15;;;;;;;14.90;9.30;;;;;;;;;;5035328;28;20029;-76
2022/07/01 04:06:41;;;;;;;12.98;10.23;;;;;;;;;;5035364;28;20060;-76
2022/07/01 04:09:07;;;;;;;13.35;10.75;;;;;;;;;;5035150;28;20025;-76
2022/07/01 04:11:33;;;;;;;14.63;10.60;;;;;;;;;;5035474;28;20483;-71
2022/07/01 04:13:59;;;;;;;11.52;9.15;;;;;;;;;;5035267;28;20029;-76
2022/07/01 04:16:25;;;;;;;12.55;8.75;;;;;;;;;;5035280;28;20377;-76
2022/07/01 04:18:52;;;;;;;12.55;8.40;;;;;;;;;;5035243;28;20120;-77
2022/07/01 04:24:03;;;;;;;20.40;13.77;;;;;;;;;;5035008;28;20052;-76
2022/07/01 04:26:29;;;;;;;20.15;18.05;;;;;;;;;;5035118;28;20105;-76
2022/07/01 04:28:55;;;;;;;17.23;13.10;;;;;;;;;;5034737;28;20030;-76
2022/07/01 04:31:22;;;;;;;12.73;9.85;;;;;;;;;;5034965;28;20034;-76
2022/07/01 04:33:48;;;;;;;12.13;9.25;;;;;;;;;;5034856;28;20105;-76
2022/07/01 04:36:15;;;;;;;12.43;10.38;;;;;;;;;;5035064;28;20100;-76
2022/07/01 04:38:41;;;;;;;12.55;9.75;;;;;;;;;;5034651;28;20047;-76
2022/07/01 04:43:51;;;;;;;19.92;14.52;;;;;;;;;;5033787;28;20469;-76
2022/07/01 04:46:18;;;;;;;20.70;13.27;;;;;;;;;;5034650;28;20117;-73
2022/07/01 04:48:44;;;;;;;15.68;11.70;;;;;;;;;;5034458;28;20369;-75
2022/07/01 04:51:10;;;;;;;15.80;10.07;;;;;;;;;;5034432;28;20064;-76
2022/07/01 04:53:36;;;;;;;17.95;10.25;;;;;;;;;;5034659;28;20021;-76
2022/07/01 04:56:02;;;;;;;10.18;9.13;;;;;;;;;;5034398;28;20033;-75
2022/07/01 04:58:28;;;;;;;10.65;9.00;;;;;;;;;;5034295;28;20469;-75
2022/07/01 05:00:54;;;;;;;11.93;9.15;;;;;;;;;;5034180;28;20035;-75
2022/07/01 05:03:20;;;;;;;12.25;9.13;;;;;;;;;;5034231;28;20084;-75
2022/07/01 05:05:46;;;;;;;14.63;9.77;;;;;;;;;;5034195;28;20053;-75
2022/07/01 05:08:12;;;;;;;16.10;8.57;;;;;;;;;;5034023;28;20029;-75
2022/07/01 05:10:38;;;;;;;15.48;9.98;;;;;;;;;;5034060;28;20481;-76
2022/07/01 05:13:04;;;;;;;13.30;9.75;;;;;;;;;;5016563;28;20029;-79
2022/07/01 05:15:31;;;;;;;12.98;9.23;;;;;;;;;;5034183;28;20033;-76
2022/07/01 05:23:26;;;;;;;9.75;8.75;;;;;;;;;;5033950;28;20048;-76
2022/07/01 05:25:52;;;;;;;15.30;9.73;;;;;;;;;;5033836;28;20053;-75
2022/07/01 05:28:18;;;;;;;17.80;10.25;;;;;;;;;;5033672;28;20022;-77
2022/07/01 05:30:44;;;;;;;14.52;9.15;;;;;;;;;;5033655;28;20051;-77
2022/07/01 05:33:10;;;;;;;11.32;9.23;;;;;;;;;;5034201;28;20101;-72
2022/07/01 05:35:36;;;;;;;13.90;9.18;;;;;;;;;;5033630;28;20049;-77
2022/07/01 05:38:02;;;;;;;13.57;8.98;;;;;;;;;;5033583;28;20025;-78
2022/07/01 05:40:29;;;;;;;17.02;9.00;;;;;;;;;;5033500;28;20033;-77
2022/07/01 05:42:55;;;;;;;15.13;9.15;;;;;;;;;;5033444;28;20087;-76
2022/07/01 05:45:21;;;;;;;14.05;8.68;;;;;;;;;;5033580;28;20025;-77
2022/07/01 05:47:47;;;;;;;18.20;9.52;;;;;;;;;;5033335;28;20021;-77
2022/07/01 05:50:13;;;;;;;14.02;8.90;;;;;;;;;;5033233;28;20130;-76
2022/07/01 05:52:39;;;;;;;12.50;9.32;;;;;;;;;;5033160;28;20021;-75
2022/07/01 05:55:06;;;;;;;14.15;10.07;;;;;;;;;;5032749;28;20025;-77
2022/07/01 05:57:32;;;;;;;15.07;11.70;;;;;;;;;;5033193;28;20021;-78
2022/07/01 05:59:58;;;;;;;15.40;10.32;;;;;;;;;;5033364;28;20455;-77
2022/07/01 06:02:25;;;;;;;13.25;10.30;;;;;;;;;;5033253;28;20377;-77
2022/07/01 06:04:51;;;;;;;20.02;10.48;;;;;;;;;;5033024;28;20132;-77
2022/07/01 06:07:17;;;;;;;12.10;9.45;;;;;;;;;;5033107;28;20079;-77
2022/07/01 06:09:43;;;;;;;11.77;9.40;;;;;;;;;;5032863;28;20037;-78
2022/07/01 06:12:09;;;;;;;19.63;9.80;;;;;;;;;;5033240;28;20057;-78
2022/07/01 06:14:37;;;;;;;11.52;9.20;;;;;;;;;;5033139;28;20037;-76
2022/07/01 06:17:03;;;;;;;13.68;9.52;;;;;;;;;;5014988;28;20439;-76
2022/07/01 06:19:29;;;;;;;15.00;10.20;;;;;;;;;;5033044;28;20041;-76
2022/07/01 06:21:56;;;;;;;13.05;9.10;;;;;;;;;;5033064;28;20104;-75
2022/07/01 06:24:22;;;;;;;12.60;9.00;;;;;;;;;;5032809;28;20100;-76
2022/07/01 06:26:48;;;;;;;13.93;9.15;;;;;;;;;;5032810;28;20025;-79
2022/07/01 06:29:14;;;;;;;12.35;9.00;;;;;;;;;;5032755;28;20369;-74
2022/07/01 06:31:40;;;;;;;12.73;9.38;;;;;;;;;;5032896;28;20048;-78
2022/07/01 06:34:06;;;;;;;12.63;9.30;;;;;;;;;;5032817;28;20033;-78
2022/07/01 06:36:32;;;;;;;12.85;8.63;;;;;;;;;;5032767;28;20017;-78
2022/07/01 06:38:58;;;;;;;16.52;10.85;;;;;;;;;;5032676;28;20025;-70
2022/07/01 06:41:27;;;;;;;13.35;9.75;;;;;;;;;;5032821;28;20030;-76
2022/07/01 06:43:57;;;;;;;16.27;8.77;;;;;;;;;;5032900;28;20025;-79
2022/07/01 06:46:23;;;;;;;13.10;10.45;;;;;;;;;;5032740;28;20568;-78
2022/07/01 06:48:49;;;;;;;14.15;9.35;;;;;;;;;;5032867;28;20360;-75
2022/07/01 06:51:15;;;;;;;20.27;10.20;;;;;;;;;;5032613;28;20072;-77
2022/07/01 06:53:44;;;;;;;36.05;14.18;;;;;;;;;;5032510;28;20029;-78
2022/07/01 06:56:11;;;;;;;13.18;10.60;;;;;;;;;;5032800;28;20381;-78
2022/07/01 06:58:37;;;;;;;11.82;8.02;;;;;;;;;;5032592;28;20018;-78
2022/07/01 07:01:04;;;;;;;11.38;9.18;;;;;;;;;;5032679;28;20451;-76
2022/07/01 07:03:31;;;;;;;10.30;8.50;;;;;;;;;;5032565;28;20026;-78
2022/07/01 07:06:00;;;;;;;9.00;8.10;;;;;;;;;;5032353;28;20462;-79
2022/07/01 07:08:26;;;;;;;10.63;7.88;;;;;;;;;;5035214;28;20079;-77
2022/07/01 07:10:52;;;;;;;12.65;8.68;;;;;;;;;;5036557;28;20033;-73
2022/07/01 07:13:18;;;;;;;12.75;8.60;;;;;;;;;;5036379;28;20103;-73
2022/07/01 07:15:45;;;;;;;9.65;7.70;;;;;;;;;;5036148;28;20492;-77
2022/07/01 07:18:11;;;;;;;10.73;8.00;;;;;;;;;;5036310;28;20018;-77
2022/07/01 07:20:37;;;;;;;10.25;7.30;;;;;;;;;;5036291;28;20109;-78
2022/07/01 07:23:03;;;;;;;16.25;8.70;;;;;;;;;;5035986;28;20030;-76
2022/07/01 07:25:29;;;;;;;10.38;8.27;;;;;;;;;;5036015;28;20508;-77
2022/07/01 07:27:56;;;;;;;21.00;7.70;;;;;;;;;;5036004;28;20017;-77
2022/07/01 07:30:22;;;;;;;10.02;8.18;;;;;;;;;;5036029;28;20404;-78
2022/07/01 07:32:48;;;;;;;11.73;7.78;;;;;;;;;;5036299;28;20051;-77
2022/07/01 07:35:14;;;;;;;12.38;8.52;;;;;;;;;;5036050;28;20033;-76
2022/07/01 07:37:40;;;;;;;13.77;8.43;;;;;;;;;;5035641;28;20029;-74
2022/07/01 07:40:09;;;;;;;11.43;8.32;;;;;;;;;;5035978;28;20468;-75
2022/07/01 07:42:36;;;;;;;12.23;7.35;;;;;;;;;;5035770;28;20021;-74
2022/07/01 07:45:02;;;;;;;10.25;7.28;;;;;;;;;;5035706;28;20033;-76
2022/07/01 07:47:28;;;;;;;14.40;8.48;;;;;;;;;;5035738;28;20017;-75
2022/07/01 07:49:54;;;;;;;32.53;9.45;;;;;;;;;;5035490;28;20018;-74
2022/07/01 07:52:21;;;;;;;11.43;8.05;;;;;;;;;;5040121;28;20029;-72
2022/07/01 07:54:47;;;;;;;111.95;24.05;;;;;;;;;;5036920;28;20383;-74
2022/07/01 07:57:13;;;;;;;11.23;8.20;;;;;;;;;;5035664;28;20025;-76
2022/07/01 07:59:39;;;;;;;13.13;8.32;;;;;;;;;;5035499;28;20045;-76
2022/07/01 08:02:05;;;;;;;41.03;14.02;;;;;;;;;;5035542;28;20029;-75
2022/07/01 08:04:31;;;;;;;11.07;8.43;;;;;;;;;;5035249;28;20042;-76
2022/07/01 08:06:58;;;;;;;112.20;23.77;;;;;;;;;;5035416;28;20037;-72
2022/07/01 08:09:24;;;;;;;57.28;17.30;;;;;;;;;;5035040;28;20476;-76
2022/07/01 08:11:50;;;;;;;14.82;9.20;;;;;;;;;;5035351;28;20033;-69
2022/07/01 08:14:16;;;;;;;42.90;14.00;;;;;;;;;;5035059;28;20426;-76
2022/07/01 08:16:42;;;;;;;17.80;8.88;;;;;;;;;;5035187;28;20026;-76
2022/07/01 08:19:08;;;;;;;86.47;17.95;;;;;;;;;;5034777;28;20530;-78
2022/07/01 08:21:35;;;;;;;28.10;10.73;;;;;;;;;;5035291;28;20396;-77
2022/07/01 08:24:01;;;;;;;19.45;9.15;;;;;;;;;;5034859;28;20022;-76
2022/07/01 08:26:27;;;;;;;27.35;10.13;;;;;;;;;;5034833;28;20018;-76
2022/07/01 08:28:53;;;;;;;20.95;9.35;;;;;;;;;;5034914;28;20065;-76
2022/07/01 08:31:19;;;;;;;26.55;10.00;;;;;;;;;;5034838;28;20072;-76
2022/07/01 08:33:45;;;;;;;25.23;11.00;;;;;;;;;;5034899;28;20026;-77
2022/07/01 08:36:13;;;;;;;20.55;9.80;;;;;;;;;;5034766;28;20029;-78
2022/07/01 08:38:40;;;;;;;25.70;10.50;;;;;;;;;;5016328;28;20025;-76
2022/07/01 08:41:06;;;;;;;15.50;9.50;;;;;;;;;;5034782;28;20051;-78
2022/07/01 08:43:32;;;;;;;18.92;9.55;;;;;;;;;;5034688;28;20076;-75
2022/07/01 08:46:01;;;;;;;21.83;9.18;;;;;;;;;;5034924;28;20026;-78
2022/07/01 08:48:27;;;;;;;19.60;10.23;;;;;;;;;;5034566;28;20025;-78
2022/07/01 08:50:53;;;;;;;21.83;8.48;;;;;;;;;;5034501;28;20120;-77
2022/07/01 08:53:19;;;;;;;14.02;8.20;;;;;;;;;;5034418;28;20100;-77
2022/07/01 08:58:30;;;;;;;13.38;8.68;;;;;;;;;;5034569;28;20072;-76
2022/07/01 09:01:15;;;;;;;14.63;8.80;;;;;;;;;;5016392;28;20041;-77
2022/07/01 09:03:41;;;;;;;15.50;8.52;;;;;;;;;;5034444;28;20030;-76
2022/07/01 09:06:16;;;;;;;15.43;8.63;;;;;;;;;;5034002;28;20136;-76
2022/07/01 09:08:43;;;;;;;12.93;8.50;;;;;;;;;;5034241;28;20026;-75
2022/07/01 09:11:16;;;;;;;15.07;8.15;;;;;;;;;;5034145;28;20033;-77
2022/07/01 09:13:43;;;;;;;13.88;8.38;;;;;;;;;;5034197;28;20021;-75
2022/07/01 09:16:13;;;;;;;15.93;8.50;;;;;;;;;;5034072;28;20498;-75
2022/07/01 09:18:39;;;;;;;12.75;7.93;;;;;;;;;;5033963;28;20018;-74
2022/07/01 09:21:08;;;;;;;13.48;7.90;;;;;;;;;;5034052;28;20483;-77
2022/07/01 09:23:34;;;;;;;15.27;9.32;;;;;;;;;;5033863;28;20025;-75
2022/07/01 09:26:01;;;;;;;11.18;7.80;;;;;;;;;;5033805;28;20036;-75
2022/07/01 09:28:27;;;;;;;12.00;8.05;;;;;;;;;;5034110;28;20021;-75
2022/07/01 09:30:54;;;;;;;11.70;7.82;;;;;;;;;;5033010;28;20049;-72
2022/07/01 09:33:22;;;;;;;13.40;8.98;;;;;;;;;;5033780;28;20021;-75
2022/07/01 09:35:52;;;;;;;11.23;7.15;;;;;;;;;;5033808;28;20036;-75
2022/07/01 09:38:19;;;;;;;12.47;8.07;;;;;;;;;;5033639;28;20025;-76
2022/07/01 09:40:46;;;;;;;11.75;8.73;;;;;;;;;;5033567;28;20048;-75
2022/07/01 09:43:19;;;;;;;15.00;8.38;;;;;;;;;;5033565;28;20444;-76
2022/07/01 09:45:57;;;;;;;12.20;8.35;;;;;;;;;;5033332;28;20033;-78
2022/07/01 09:48:25;;;;;;;13.75;8.95;;;;;;;;;;5033690;28;20383;-74
2022/07/01 09:50:51;;;;;;;14.88;8.60;;;;;;;;;;5033401;28;20120;-76
2022/07/01 09:53:17;;;;;;;10.85;7.90;;;;;;;;;;5033633;28;20025;-70
2022/07/01 09:55:43;;;;;;;11.30;8.30;;;;;;;;;;5033386;28;20083;-75
2022/07/01 09:58:10;;;;;;;10.75;7.70;;;;;;;;;;5033597;28;20365;-77
2022/07/01 10:00:37;;;;;;;11.20;8.30;;;;;;;;;;5033471;28;20499;-75
2022/07/01 10:03:06;;;;;;;16.15;8.15;;;;;;;;;;5033567;28;20033;-77
2022/07/01 10:05:36;;;;;;;11.35;8.27;;;;;;;;;;5033232;28;20053;-77
2022/07/01 10:08:22;;;;;;;13.32;7.90;;;;;;;;;;5033397;28;20053;-77
2022/07/01 10:10:57;;;;;;;10.85;7.55;;;;;;;;;;4933763;29;20126;-78
2022/07/01 10:13:27;;;;;;;11.75;8.30;;;;;;;;;;4934113;29;20515;-77
2022/07/01 10:15:56;;;;;;;11.73;7.25;;;;;;;;;;4933962;29;20043;-74
2022/07/01 10:18:23;;;;;;;54.13;13.05;;;;;;;;;;4933896;29;20033;-76
2022/07/01 10:20:50;;;;;;;38.88;13.60;;;;;;;;;;4933991;29;20633;-76
2022/07/01 10:23:16;;;;;;;17.38;8.93;;;;;;;;;;4933866;29;20035;-74
2022/07/01 10:25:43;;;;;;;12.95;7.97;;;;;;;;;;4933642;29;20027;-77
2022/07/01 10:28:27;;;;;;;14.38;9.50;;;;;;;;;;4933775;29;20051;-78
2022/07/01 10:30:55;;;;;;;30.67;8.90;;;;;;;;;;4933506;29;20048;-77
2022/07/01 10:33:27;;;;;;;14.45;8.27;;;;;;;;;;4933822;29;20043;-75
2022/07/01 10:35:53;;;;;;;19.60;8.68;;;;;;;;;;4933575;29;20040;-75
2022/07/01 10:38:19;;;;;;;15.45;8.90;;;;;;;;;;4933318;29;20129;-75
2022/07/01 10:40:48;;;;;;;21.30;9.13;;;;;;;;;;4933534;29;20515;-75
2022/07/01 10:43:18;;;;;;;13.23;7.55;;;;;;;;;;4937460;29;20148;-76
2022/07/01 10:45:44;;;;;;;14.10;6.43;;;;;;;;;;4937378;29;20032;-75
2022/07/01 10:48:20;;;;;;;15.00;8.38;;;;;;;;;;4999488;28;20039;-76
2022/07/01 10:50:47;;;;;;;10.80;7.93;;;;;;;;;;5036503;28;20033;-75
2022/07/01 10:53:14;;;;;;;11.10;7.97;;;;;;;;;;5036478;28;20114;-71
2022/07/01 10:55:41;;;;;;;12.50;7.70;;;;;;;;;;5036674;28;20447;-75
2022/07/01 10:58:08;;;;;;;12.30;7.43;;;;;;;;;;5036647;28;20025;-76
2022/07/01 11:00:35;;;;;;;6.78;5.45;;;;;;;;;;5036838;28;20021;-78
2022/07/01 11:03:27;;;;;;;15.63;7.03;;;;;;;;;;5036622;28;20053;-78
2022/07/01 11:05:55;;;;;;;10.02;6.88;;;;;;;;;;5031959;28;20119;-78
2022/07/01 11:08:22;;;;;;;11.57;7.20;;;;;;;;;;5036484;28;20026;-77
2022/07/01 11:10:54;;;;;;;19.13;7.35;;;;;;;;;;5036371;28;20033;-78
2022/07/01 11:13:20;;;;;;;12.93;6.50;;;;;;;;;;5036602;28;20025;-77
2022/07/01 11:15:47;;;;;;;12.75;6.60;;;;;;;;;;5036274;28;20064;-76
2022/07/01 11:18:14;;;;;;;9.07;6.53;;;;;;;;;;5036235;28;20487;-74
2022/07/01 11:20:40;;;;;;;8.70;6.80;;;;;;;;;;5036312;28;20041;-74
2022/07/01 11:23:06;;;;;;;13.57;6.43;;;;;;;;;;5036213;28;20029;-75
2022/07/01 11:25:32;;;;;;;8.98;6.45;;;;;;;;;;5036087;28;20484;-75
2022/07/01 11:27:59;;;;;;;28.95;6.78;;;;;;;;;;5035985;28;20028;-74
2022/07/01 11:30:25;;;;;;;8.32;5.82;;;;;;;;;;5035959;28;20029;-76
2022/07/01 11:33:00;;;;;;;10.70;6.03;;;;;;;;;;5036342;28;20583;-76
2022/07/01 11:41:20;;;;;;;7.68;6.18;;;;;;;;;;4975174;28;20173;-76
2022/07/01 11:43:46;;;;;;;13.02;6.20;;;;;;;;;;4975143;28;20035;-77
2022/07/01 11:46:12;;;;;;;8.05;6.45;;;;;;;;;;4974953;28;20022;-76
2022/07/01 11:48:38;;;;;;;7.88;6.15;;;;;;;;;;4974875;28;20054;-76
2022/07/01 11:51:11;;;;;;;9.23;6.40;;;;;;;;;;4974669;28;20054;-75
2022/07/01 11:53:38;;;;;;;7.82;6.30;;;;;;;;;;4974073;28;20106;-74
2022/07/01 11:56:04;;;;;;;9.75;6.15;;;;;;;;;;4974458;28;20409;-71
2022/07/01 11:58:46;;;;;;;9.88;6.00;;;;;;;;;;4974817;28;20447;-73
2022/07/01 12:01:20;;;;;;;9.95;6.93;;;;;;;;;;4974317;28;21904;-74
2022/07/01 12:03:46;;;;;;;6.88;6.20;;;;;;;;;;4974590;28;20494;-74
2022/07/01 12:06:12;;;;;;;8.90;6.25;;;;;;;;;;4958131;28;20054;-74
2022/07/01 12:08:38;;;;;;;9.65;5.97;;;;;;;;;;4974470;28;20170;-76
2022/07/01 12:11:05;;;;;;;9.75;6.35;;;;;;;;;;4974041;28;20538;-75
2022/07/01 12:13:35;;;;;;;9.07;6.15;;;;;;;;;;4992105;28;20502;-76
2022/07/01 12:16:10;;;;;;;9.98;6.20;;;;;;;;;;5035495;28;20392;-76
2022/07/01 12:18:37;;;;;;;8.23;6.75;;;;;;;;;;5035320;28;20076;-76
2022/07/01 12:21:03;;;;;;;13.45;7.10;;;;;;;;;;5035079;28;20575;-76
2022/07/01 12:23:30;;;;;;;8.80;6.60;;;;;;;;;;5034925;28;20049;-75
2022/07/01 12:25:56;;;;;;;11.05;6.53;;;;;;;;;;5035299;28;20379;-76
2022/07/01 12:28:28;;;;;;;9.43;6.00;;;;;;;;;;5034997;28;20018;-74
2022/07/01 12:31:01;;;;;;;9.18;6.78;;;;;;;;;;5034876;28;20073;-74
2022/07/01 12:33:27;;;;;;;8.55;6.40;;;;;;;;;;5034828;28;20109;-74
2022/07/01 12:35:54;;;;;;;10.20;6.47;;;;;;;;;;5034784;28;20409;-74
2022/07/01 12:38:20;;;;;;;11.82;6.88;;;;;;;;;;5034823;28;20036;-74
2022/07/01 12:40:46;;;;;;;13.07;8.27;;;;;;;;;;5034584;28;20480;-74
2022/07/01 12:43:25;;;;;;;10.73;7.18;;;;;;;;;;5034744;28;20029;-74
2022/07/01 12:45:51;;;;;;;8.57;6.20;;;;;;;;;;5034750;28;20053;-75
2022/07/01 12:48:17;;;;;;;10.55;6.30;;;;;;;;;;5017063;28;20431;-74
2022/07/01 12:50:45;;;;;;;10.60;5.95;;;;;;;;;;5034315;28;20377;-75
2022/07/01 12:53:13;;;;;;;10.80;5.88;;;;;;;;;;5034571;28;20018;-72
2022/07/01 12:55:43;;;;;;;6.97;5.85;;;;;;;;;;5034374;28;20049;-73
2022/07/01 12:58:11;;;;;;;6.40;5.68;;;;;;;;;;5034481;28;20057;-75
2022/07/01 13:00:38;;;;;;;7.75;5.90;;;;;;;;;;5034379;28;20024;-75
2022/07/01 13:03:05;;;;;;;7.57;6.15;;;;;;;;;;5034705;28;20056;-76
2022/07/01 13:05:31;;;;;;;9.02;6.70;;;;;;;;;;5033291;28;20056;-77
2022/07/01 13:07:58;;;;;;;8.50;6.28;;;;;;;;;;5034266;28;20452;-77
2022/07/01 13:10:24;;;;;;;7.95;6.18;;;;;;;;;;5034121;28;20460;-75
2022/07/01 13:12:50;;;;;;;9.30;6.75;;;;;;;;;;5034248;28;20017;-77
2022/07/01 13:15:17;;;;;;;10.27;7.00;;;;;;;;;;5034068;28;20026;-76
2022/07/01 13:17:44;;;;;;;10.95;7.20;;;;;;;;;;5034084;28;20022;-73
2022/07/01 13:20:11;;;;;;;8.75;6.47;;;;;;;;;;5034040;28;20018;-75
2022/07/01 13:22:37;;;;;;;10.20;6.40;;;;;;;;;;5033910;28;20118;-74
2022/07/01 13:25:04;;;;;;;10.90;7.45;;;;;;;;;;5033915;28;20021;-74
2022/07/01 13:27:43;;;;;;;10.02;6.03;;;;;;;;;;5111018;27;20373;-80
2022/07/01 13:30:10;;;;;;;7.93;6.97;;;;;;;;;;5111189;28;20042;-78
2022/07/01 13:32:36;;;;;;;15.77;6.93;;;;;;;;;;5110972;28;20481;-79
2022/07/01 13:35:03;;;;;;;12.45;7.65;;;;;;;;;;5110801;28;20039;-78
2022/07/01 13:37:29;;;;;;;10.77;7.63;;;;;;;;;;5109472;28;20028;-76
2022/07/01 13:39:56;;;;;;;10.15;6.53;;;;;;;;;;5109201;28;20035;-81
2022/07/01 13:42:22;;;;;;;8.77;6.57;;;;;;;;;;5110734;28;20032;-80
2022/07/01 13:44:49;;;;;;;17.55;7.20;;;;;;;;;;5110619;28;20474;-80
2022/07/01 13:47:15;;;;;;;11.75;7.82;;;;;;;;;;5110594;28;20036;-80
2022/07/01 13:49:42;;;;;;;9.95;7.28;;;;;;;;;;5109327;28;20486;-80
2022/07/01 13:52:08;;;;;;;10.52;7.60;;;;;;;;;;5109717;28;20032;-82
2022/07/01 13:54:35;;;;;;;7.43;6.63;;;;;;;;;;5110644;28;20026;-76
2022/07/01 13:57:01;;;;;;;10.60;7.20;;;;;;;;;;5110360;28;20023;-80
2022/07/01 13:59:27;;;;;;;11.95;7.55;;;;;;;;;;5110315;28;20027;-76
2022/07/01 14:01:53;;;;;;;12.57;7.47;;;;;;;;;;5110454;28;20389;-76
2022/07/01 14:04:19;;;;;;;14.15;7.53;;;;;;;;;;5109066;28;20026;-76
2022/07/01 14:06:45;;;;;;;9.70;7.43;;;;;;;;;;5109365;28;20063;-80
2022/07/01 14:09:11;;;;;;;12.52;7.38;;;;;;;;;;5110224;28;20020;-76
2022/07/01 14:11:37;;;;;;;9.98;6.55;;;;;;;;;;5110285;28;20024;-76
2022/07/01 14:14:04;;;;;;;8.48;6.38;;;;;;;;;;5110225;28;20035;-76
2022/07/01 14:16:30;;;;;;;10.43;7.43;;;;;;;;;;5110144;28;20028;-76
2022/07/01 14:18:56;;;;;;;8.25;6.68;;;;;;;;;;5109005;28;20028;-75
2022/07/01 14:21:23;;;;;;;8.73;6.97;;;;;;;;;;5109923;28;20035;-76
2022/07/01 14:23:49;;;;;;;11.02;7.75;;;;;;;;;;5110018;28;20024;-76
2022/07/01 14:26:15;;;;;;;11.25;6.60;;;;;;;;;;5108555;28;20052;-76
2022/07/01 14:28:42;;;;;;;10.82;7.95;;;;;;;;;;5108624;28;20619;-75
2022/07/01 14:31:08;;;;;;;12.48;8.43;;;;;;;;;;5108530;28;20024;-75
2022/07/01 14:33:34;;;;;;;9.35;7.65;;;;;;;;;;5108429;28;20028;-74
2022/07/01 14:36:00;;;;;;;13.70;7.75;;;;;;;;;;5109679;28;20470;-75
2022/07/01 14:38:26;;;;;;;12.65;7.78;;;;;;;;;;5099205;28;20072;-75